sensor_id;sensor_type;location;lat;lon;timestamp;P1;durP1;ratioP1;P2;durP2;ratioP2
30818;SDS011;17546;42.674;23.284;2023-04-25T13:23:45;5.20;;;2.38;;
30818;SDS011;17546;42.674;23.284;2023-04-25T13:26:32;6.57;;;2.58;;
30818;SDS011;17546;42.674;23.284;2023-04-25T13:29:51;5.82;;;1.95;;
30818;SDS011;17546;42.674;23.284;2023-04-25T13:32:26;6.15;;;2.40;;
30818;SDS011;17546;42.674;23.284;2023-04-25T13:35:21;8.65;;;2.72;;
30818;SDS011;17546;42.674;23.284;2023-04-25T13:40:34;12.30;;;2.25;;
30818;SDS011;17546;42.674;23.284;2023-04-25T13:43:18;4.97;;;2.53;;
30818;SDS011;17546;42.674;23.284;2023-04-25T13:48:53;10.50;;;2.80;;
30818;SDS011;17546;42.674;23.284;2023-04-25T13:54:30;5.80;;;2.53;;
30818;SDS011;17546;42.674;23.284;2023-04-25T13:57:19;4.93;;;2.70;;
30818;SDS011;17546;42.674;23.284;2023-04-25T14:00:33;8.93;;;2.33;;
30818;SDS011;17546;42.674;23.284;2023-04-25T14:03:18;5.15;;;2.58;;
30818;SDS011;17546;42.674;23.284;2023-04-25T14:12:13;2.20;;;1.25;;
30818;SDS011;17546;42.674;23.284;2023-04-25T14:18:07;2.97;;;1.20;;
30818;SDS011;17546;42.674;23.284;2023-04-25T14:21:14;6.18;;;2.50;;
30818;SDS011;17546;42.674;23.284;2023-04-25T14:24:06;4.85;;;2.28;;
30818;SDS011;17546;42.674;23.284;2023-04-25T16:06:18;6.80;;;2.00;;
30818;SDS011;17546;42.674;23.284;2023-04-25T16:08:43;3.28;;;1.90;;
30818;SDS011;17546;42.674;23.284;2023-04-25T16:11:18;10.40;;;3.95;;
30818;SDS011;17546;42.674;23.284;2023-04-25T16:13:44;10.85;;;4.45;;
30818;SDS011;17546;42.674;23.284;2023-04-25T16:16:10;9.43;;;3.45;;
30818;SDS011;17546;42.674;23.284;2023-04-25T16:18:53;4.00;;;2.50;;
30818;SDS011;17546;42.674;23.284;2023-04-25T16:37:48;14.95;;;2.30;;
30818;SDS011;17546;42.674;23.284;2023-04-25T16:40:18;4.78;;;2.20;;
30818;SDS011;17546;42.674;23.284;2023-04-25T16:45:54;7.25;;;2.78;;
30818;SDS011;17546;42.674;23.284;2023-04-25T16:48:20;5.63;;;2.47;;
30818;SDS011;17546;42.674;23.284;2023-04-25T17:16:40;3.72;;;2.90;;
30818;SDS011;17546;42.674;23.284;2023-04-25T17:19:06;3.30;;;2.55;;
30818;SDS011;17546;42.674;23.284;2023-04-25T17:21:32;3.30;;;2.28;;
30818;SDS011;17546;42.674;23.284;2023-04-25T17:23:58;4.72;;;2.70;;
30818;SDS011;17546;42.674;23.284;2023-04-25T17:39:21;3.63;;;2.58;;
30818;SDS011;17546;42.674;23.284;2023-04-25T17:41:46;3.80;;;2.88;;
30818;SDS011;17546;42.674;23.284;2023-04-25T17:44:12;4.35;;;3.10;;
30818;SDS011;17546;42.674;23.284;2023-04-25T18:02:09;2.72;;;2.00;;
30818;SDS011;17546;42.674;23.284;2023-04-25T18:04:45;4.13;;;2.33;;
30818;SDS011;17546;42.674;23.284;2023-04-25T18:12:14;2.97;;;2.00;;
30818;SDS011;17546;42.674;23.284;2023-04-25T18:14:39;5.20;;;2.38;;
30818;SDS011;17546;42.674;23.284;2023-04-25T18:17:05;4.35;;;2.05;;
30818;SDS011;17546;42.674;23.284;2023-04-25T18:19:32;2.90;;;1.90;;
30818;SDS011;17546;42.674;23.284;2023-04-25T18:21:59;2.47;;;1.88;;
30818;SDS011;17546;42.674;23.284;2023-04-25T18:24:25;2.35;;;1.85;;
30818;SDS011;17546;42.674;23.284;2023-04-25T18:26:51;1.95;;;1.67;;
30818;SDS011;17546;42.674;23.284;2023-04-25T18:29:18;1.85;;;1.52;;
30818;SDS011;17546;42.674;23.284;2023-04-25T18:31:44;1.98;;;1.63;;
30818;SDS011;17546;42.674;23.284;2023-04-25T18:34:10;1.80;;;1.60;;
30818;SDS011;17546;42.674;23.284;2023-04-25T18:36:36;3.78;;;1.85;;
30818;SDS011;17546;42.674;23.284;2023-04-25T18:39:04;2.92;;;1.80;;
30818;SDS011;17546;42.674;23.284;2023-04-25T18:41:31;2.00;;;1.70;;
30818;SDS011;17546;42.674;23.284;2023-04-25T18:44:01;1.92;;;1.60;;
30818;SDS011;17546;42.674;23.284;2023-04-25T18:46:29;2.97;;;2.10;;
30818;SDS011;17546;42.674;23.284;2023-04-25T18:48:55;3.03;;;1.85;;
30818;SDS011;17546;42.674;23.284;2023-04-25T18:51:23;4.18;;;1.95;;
30818;SDS011;17546;42.674;23.284;2023-04-25T18:53:53;2.65;;;1.63;;
30818;SDS011;17546;42.674;23.284;2023-04-25T18:56:19;3.45;;;1.60;;
30818;SDS011;17546;42.674;23.284;2023-04-25T18:58:47;4.28;;;1.75;;
30818;SDS011;17546;42.674;23.284;2023-04-25T19:01:13;2.13;;;1.73;;
30818;SDS011;17546;42.674;23.284;2023-04-25T19:03:39;3.72;;;2.30;;
30818;SDS011;17546;42.674;23.284;2023-04-25T19:06:04;4.43;;;2.00;;
30818;SDS011;17546;42.674;23.284;2023-04-25T19:08:31;4.13;;;2.38;;
30818;SDS011;17546;42.674;23.284;2023-04-25T19:10:56;2.85;;;1.95;;
30818;SDS011;17546;42.674;23.284;2023-04-25T19:13:22;5.32;;;2.05;;
30818;SDS011;17546;42.674;23.284;2023-04-25T19:15:47;4.07;;;1.38;;
30818;SDS011;17546;42.674;23.284;2023-04-25T19:18:13;4.45;;;1.73;;
30818;SDS011;17546;42.674;23.284;2023-04-25T19:20:42;2.92;;;1.58;;
30818;SDS011;17546;42.674;23.284;2023-04-25T19:23:08;4.57;;;1.60;;
30818;SDS011;17546;42.674;23.284;2023-04-25T19:25:34;2.83;;;1.50;;
30818;SDS011;17546;42.674;23.284;2023-04-25T19:28:00;1.65;;;1.48;;
30818;SDS011;17546;42.674;23.284;2023-04-25T19:30:26;3.13;;;1.88;;
30818;SDS011;17546;42.674;23.284;2023-04-25T19:32:55;3.47;;;2.05;;
30818;SDS011;17546;42.674;23.284;2023-04-25T19:35:21;4.15;;;2.20;;
30818;SDS011;17546;42.674;23.284;2023-04-25T19:37:48;5.18;;;2.03;;
30818;SDS011;17546;42.674;23.284;2023-04-25T19:40:14;3.85;;;2.03;;
30818;SDS011;17546;42.674;23.284;2023-04-25T19:42:55;2.90;;;1.73;;
30818;SDS011;17546;42.674;23.284;2023-04-25T19:45:21;2.42;;;1.58;;
30818;SDS011;17546;42.674;23.284;2023-04-25T19:47:46;1.50;;;1.30;;
30818;SDS011;17546;42.674;23.284;2023-04-25T19:50:12;1.88;;;1.30;;
30818;SDS011;17546;42.674;23.284;2023-04-25T19:52:38;1.70;;;1.35;;
30818;SDS011;17546;42.674;23.284;2023-04-25T19:55:04;4.00;;;1.92;;
30818;SDS011;17546;42.674;23.284;2023-04-25T19:57:30;1.95;;;1.40;;
30818;SDS011;17546;42.674;23.284;2023-04-25T20:00:02;3.35;;;1.60;;
30818;SDS011;17546;42.674;23.284;2023-04-25T20:02:32;2.65;;;1.85;;
30818;SDS011;17546;42.674;23.284;2023-04-25T20:04:57;2.38;;;1.50;;
30818;SDS011;17546;42.674;23.284;2023-04-25T20:07:23;2.53;;;1.20;;
30818;SDS011;17546;42.674;23.284;2023-04-25T20:09:48;2.05;;;1.20;;
30818;SDS011;17546;42.674;23.284;2023-04-25T20:12:14;2.05;;;1.27;;
30818;SDS011;17546;42.674;23.284;2023-04-25T20:14:40;1.65;;;1.20;;
30818;SDS011;17546;42.674;23.284;2023-04-25T20:17:07;1.88;;;1.20;;
30818;SDS011;17546;42.674;23.284;2023-04-25T20:19:32;4.45;;;1.40;;
30818;SDS011;17546;42.674;23.284;2023-04-25T20:21:58;2.70;;;1.30;;
30818;SDS011;17546;42.674;23.284;2023-04-25T20:24:23;5.75;;;1.40;;
30818;SDS011;17546;42.674;23.284;2023-04-25T20:26:48;5.35;;;1.30;;
30818;SDS011;17546;42.674;23.284;2023-04-25T20:29:14;4.72;;;1.33;;
30818;SDS011;17546;42.674;23.284;2023-04-25T20:31:40;2.17;;;1.33;;
30818;SDS011;17546;42.674;23.284;2023-04-25T20:34:06;2.83;;;1.40;;
30818;SDS011;17546;42.674;23.284;2023-04-25T20:36:32;4.18;;;1.33;;
30818;SDS011;17546;42.674;23.284;2023-04-25T20:38:59;2.90;;;1.65;;
30818;SDS011;17546;42.674;23.284;2023-04-25T20:41:25;4.10;;;1.80;;
30818;SDS011;17546;42.674;23.284;2023-04-25T20:43:51;2.47;;;1.80;;
30818;SDS011;17546;42.674;23.284;2023-04-25T20:46:17;1.70;;;1.40;;
30818;SDS011;17546;42.674;23.284;2023-04-25T20:48:46;4.63;;;1.55;;
30818;SDS011;17546;42.674;23.284;2023-04-25T20:51:11;2.92;;;1.50;;
30818;SDS011;17546;42.674;23.284;2023-04-25T20:53:37;1.77;;;1.42;;
30818;SDS011;17546;42.674;23.284;2023-04-25T20:56:02;2.75;;;1.40;;
30818;SDS011;17546;42.674;23.284;2023-04-25T20:58:28;2.22;;;1.40;;
30818;SDS011;17546;42.674;23.284;2023-04-25T21:00:54;2.72;;;1.10;;
30818;SDS011;17546;42.674;23.284;2023-04-25T21:03:20;2.17;;;1.13;;
30818;SDS011;17546;42.674;23.284;2023-04-25T21:05:46;1.73;;;1.20;;
30818;SDS011;17546;42.674;23.284;2023-04-25T21:08:11;3.53;;;1.10;;
30818;SDS011;17546;42.674;23.284;2023-04-25T21:10:37;8.35;;;1.40;;
30818;SDS011;17546;42.674;23.284;2023-04-25T21:13:02;17.23;;;2.78;;
30818;SDS011;17546;42.674;23.284;2023-04-25T21:15:28;20.13;;;3.08;;
30818;SDS011;17546;42.674;23.284;2023-04-25T21:17:54;17.15;;;3.35;;
30818;SDS011;17546;42.674;23.284;2023-04-25T21:20:19;18.33;;;3.38;;
30818;SDS011;17546;42.674;23.284;2023-04-25T21:22:49;20.33;;;3.42;;
30818;SDS011;17546;42.674;23.284;2023-04-25T21:25:18;11.52;;;2.20;;
30818;SDS011;17546;42.674;23.284;2023-04-25T21:27:48;15.10;;;2.85;;
30818;SDS011;17546;42.674;23.284;2023-04-25T21:30:15;9.60;;;2.60;;
30818;SDS011;17546;42.674;23.284;2023-04-25T21:32:42;8.05;;;2.00;;
30818;SDS011;17546;42.674;23.284;2023-04-25T21:35:09;8.05;;;2.28;;
30818;SDS011;17546;42.674;23.284;2023-04-25T21:37:35;6.75;;;2.03;;
30818;SDS011;17546;42.674;23.284;2023-04-25T21:40:00;3.92;;;2.00;;
30818;SDS011;17546;42.674;23.284;2023-04-25T21:42:26;2.53;;;1.75;;
30818;SDS011;17546;42.674;23.284;2023-04-25T21:44:51;4.03;;;2.20;;
30818;SDS011;17546;42.674;23.284;2023-04-25T21:47:17;2.65;;;1.90;;
30818;SDS011;17546;42.674;23.284;2023-04-25T21:49:42;4.35;;;2.45;;
30818;SDS011;17546;42.674;23.284;2023-04-25T21:52:07;7.53;;;2.30;;
30818;SDS011;17546;42.674;23.284;2023-04-25T21:54:33;3.47;;;2.40;;
30818;SDS011;17546;42.674;23.284;2023-04-25T21:57:00;4.32;;;2.63;;
30818;SDS011;17546;42.674;23.284;2023-04-25T21:59:26;3.13;;;2.33;;
30818;SDS011;17546;42.674;23.284;2023-04-25T22:01:52;5.90;;;2.50;;
30818;SDS011;17546;42.674;23.284;2023-04-25T22:04:18;5.10;;;2.65;;
30818;SDS011;17546;42.674;23.284;2023-04-25T22:06:43;4.07;;;2.80;;
30818;SDS011;17546;42.674;23.284;2023-04-25T22:09:10;4.47;;;2.92;;
30818;SDS011;17546;42.674;23.284;2023-04-25T22:11:36;3.45;;;2.67;;
30818;SDS011;17546;42.674;23.284;2023-04-25T22:14:02;4.45;;;3.05;;
30818;SDS011;17546;42.674;23.284;2023-04-25T22:16:27;5.20;;;2.95;;
30818;SDS011;17546;42.674;23.284;2023-04-25T22:18:53;3.42;;;2.60;;
30818;SDS011;17546;42.674;23.284;2023-04-25T22:21:18;4.85;;;2.92;;
30818;SDS011;17546;42.674;23.284;2023-04-25T22:23:44;3.13;;;2.42;;
30818;SDS011;17546;42.674;23.284;2023-04-25T22:26:09;4.07;;;2.85;;
30818;SDS011;17546;42.674;23.284;2023-04-25T22:28:36;3.90;;;2.85;;
30818;SDS011;17546;42.674;23.284;2023-04-25T22:31:03;6.05;;;2.45;;
30818;SDS011;17546;42.674;23.284;2023-04-25T22:33:28;4.10;;;2.80;;
30818;SDS011;17546;42.674;23.284;2023-04-25T22:35:54;6.57;;;2.95;;
30818;SDS011;17546;42.674;23.284;2023-04-25T22:38:19;3.63;;;2.88;;
30818;SDS011;17546;42.674;23.284;2023-04-25T22:40:44;3.85;;;2.60;;
30818;SDS011;17546;42.674;23.284;2023-04-25T22:43:12;3.38;;;2.70;;
30818;SDS011;17546;42.674;23.284;2023-04-25T22:45:39;5.07;;;3.00;;
30818;SDS011;17546;42.674;23.284;2023-04-25T22:48:04;6.43;;;3.10;;
30818;SDS011;17546;42.674;23.284;2023-04-25T22:50:30;4.63;;;3.20;;
30818;SDS011;17546;42.674;23.284;2023-04-25T22:52:56;4.57;;;3.38;;
30818;SDS011;17546;42.674;23.284;2023-04-25T22:55:21;4.55;;;3.17;;
30818;SDS011;17546;42.674;23.284;2023-04-25T22:57:47;4.78;;;3.10;;
30818;SDS011;17546;42.674;23.284;2023-04-25T23:00:12;10.05;;;4.30;;
30818;SDS011;17546;42.674;23.284;2023-04-25T23:02:43;12.98;;;4.95;;
30818;SDS011;17546;42.674;23.284;2023-04-25T23:05:10;9.32;;;4.82;;
30818;SDS011;17546;42.674;23.284;2023-04-25T23:07:36;7.72;;;4.57;;
30818;SDS011;17546;42.674;23.284;2023-04-25T23:10:02;8.75;;;4.63;;
30818;SDS011;17546;42.674;23.284;2023-04-25T23:12:28;8.82;;;4.45;;
30818;SDS011;17546;42.674;23.284;2023-04-25T23:14:53;14.45;;;6.10;;
30818;SDS011;17546;42.674;23.284;2023-04-25T23:17:18;9.93;;;4.85;;
30818;SDS011;17546;42.674;23.284;2023-04-25T23:19:45;9.65;;;5.15;;
30818;SDS011;17546;42.674;23.284;2023-04-25T23:22:10;11.93;;;4.78;;
30818;SDS011;17546;42.674;23.284;2023-04-25T23:24:36;8.55;;;4.25;;
30818;SDS011;17546;42.674;23.284;2023-04-25T23:27:05;9.50;;;3.92;;
30818;SDS011;17546;42.674;23.284;2023-04-25T23:29:31;6.47;;;3.70;;
30818;SDS011;17546;42.674;23.284;2023-04-25T23:31:58;11.32;;;3.88;;
30818;SDS011;17546;42.674;23.284;2023-04-25T23:34:23;12.13;;;3.80;;
30818;SDS011;17546;42.674;23.284;2023-04-25T23:36:49;5.43;;;3.17;;
30818;SDS011;17546;42.674;23.284;2023-04-25T23:39:15;6.32;;;3.05;;
30818;SDS011;17546;42.674;23.284;2023-04-25T23:41:42;5.40;;;3.38;;
30818;SDS011;17546;42.674;23.284;2023-04-25T23:44:08;7.35;;;3.38;;
30818;SDS011;17546;42.674;23.284;2023-04-25T23:46:34;5.05;;;3.30;;
30818;SDS011;17546;42.674;23.284;2023-04-25T23:49:00;10.73;;;3.65;;
30818;SDS011;17546;42.674;23.284;2023-04-25T23:51:28;6.55;;;3.40;;
30818;SDS011;17546;42.674;23.284;2023-04-25T23:53:54;3.95;;;3.10;;
30818;SDS011;17546;42.674;23.284;2023-04-25T23:56:20;4.72;;;3.35;;
30818;SDS011;17546;42.674;23.284;2023-04-25T23:58:46;7.60;;;3.63;;
